地図

経路データ

SID SEASON NUMBER BASIN SUBBASIN NAME ISO_TIME NATURE LAT LON WMO_WIND WMO_PRES WMO_AGENCY TRACK_TYPE DIST2LAND LANDFALL IFLAG USA_AGENCY USA_ATCF_ID USA_LAT USA_LON USA_RECORD USA_STATUS USA_WIND USA_PRES USA_SSHS USA_R34_NE USA_R34_SE USA_R34_SW USA_R34_NW USA_R50_NE USA_R50_SE USA_R50_SW USA_R50_NW USA_R64_NE USA_R64_SE USA_R64_SW USA_R64_NW USA_POCI USA_ROCI USA_RMW USA_EYE TOKYO_LAT TOKYO_LON TOKYO_GRADE TOKYO_WIND TOKYO_PRES TOKYO_R50_DIR TOKYO_R50_LONG TOKYO_R50_SHORT TOKYO_R30_DIR TOKYO_R30_LONG TOKYO_R30_SHORT TOKYO_LAND CMA_LAT CMA_LON CMA_CAT CMA_WIND CMA_PRES HKO_LAT HKO_LON HKO_CAT HKO_WIND HKO_PRES NEWDELHI_LAT NEWDELHI_LON NEWDELHI_GRADE NEWDELHI_WIND NEWDELHI_PRES NEWDELHI_CI NEWDELHI_DP NEWDELHI_POCI REUNION_LAT REUNION_LON REUNION_TYPE REUNION_WIND REUNION_PRES REUNION_TNUM REUNION_CI REUNION_RMW REUNION_R34_NE REUNION_R34_SE REUNION_R34_SW REUNION_R34_NW REUNION_R50_NE REUNION_R50_SE REUNION_R50_SW REUNION_R50_NW REUNION_R64_NE REUNION_R64_SE REUNION_R64_SW REUNION_R64_NW BOM_LAT BOM_LON BOM_TYPE BOM_WIND BOM_PRES BOM_TNUM BOM_CI BOM_RMW BOM_R34_NE BOM_R34_SE BOM_R34_SW BOM_R34_NW BOM_R50_NE BOM_R50_SE BOM_R50_SW BOM_R50_NW BOM_R64_NE BOM_R64_SE BOM_R64_SW BOM_R64_NW BOM_ROCI BOM_POCI BOM_EYE BOM_POS_METHOD BOM_PRES_METHOD NADI_LAT NADI_LON NADI_CAT NADI_WIND NADI_PRES WELLINGTON_LAT WELLINGTON_LON WELLINGTON_WIND WELLINGTON_PRES DS824_LAT DS824_LON DS824_STAGE DS824_WIND DS824_PRES TD9636_LAT TD9636_LON TD9636_STAGE TD9636_WIND TD9636_PRES TD9635_LAT TD9635_LON TD9635_WIND TD9635_PRES TD9635_ROCI NEUMANN_LAT NEUMANN_LON NEUMANN_CLASS NEUMANN_WIND NEUMANN_PRES MLC_LAT MLC_LON MLC_CLASS MLC_WIND MLC_PRES USA_GUST BOM_GUST BOM_GUST_PER REUNION_GUST REUNION_GUST_PER USA_SEAHGT USA_SEARAD_NE USA_SEARAD_SE USA_SEARAD_SW USA_SEARAD_NW STORM_SPEED STORM_DIR
1948225N18087 1948 51 NI BB NOT_NAMED 1948-08-11 18:00:00 TS 17.8000 86.5000 main 229 229 O________O____ jtwc_io IO091948 17.8000 86.5000 -1 17.8000 86.5000 TC 1 43
1948225N18087 1948 51 NI BB NOT_NAMED 1948-08-11 21:00:00 TS 17.8500 86.5500 main 228 222 P________P____ IO091948 17.8500 86.5500 -1 17.8500 86.5500 TC 1 43
1948225N18087 1948 51 NI BB NOT_NAMED 1948-08-12 00:00:00 TS 17.9000 86.6000 main 228 221 O________O____ jtwc_io IO091948 17.9000 86.6000 -1 17.9000 86.6000 TC 25 1 42
1948225N18087 1948 51 NI BB NOT_NAMED 1948-08-12 03:00:00 TS 17.9556 86.6556 main 221 221 P________PO___ IO091948 17.9500 86.6500 -1 17.9500 86.6500 TC 25 18.0000 86.7000 1 2 43
1948225N18087 1948 51 NI BB NOT_NAMED 1948-08-12 06:00:00 TS 18.0128 86.7100 main 221 211 O________OP___ jtwc_io IO091948 18.0000 86.7000 -1 18.0000 86.7000 TC 25 18.0641 86.7499 1 2 42
1948225N18087 1948 51 NI BB NOT_NAMED 1948-08-12 09:00:00 TS 18.0698 86.7636 main 214 214 P________PP___ IO091948 18.0500 86.7500 -1 18.0500 86.7500 TC 25 18.1225 86.7999 1 2 44
1948225N18087 1948 51 NI BB NOT_NAMED 1948-08-12 12:00:00 TS 18.1232 86.8167 main 214 203 O________OP___ jtwc_io IO091948 18.1000 86.8000 -1 18.1000 86.8000 TC 25 18.1697 86.8499 1 1 45
1948225N18087 1948 51 NI BB NOT_NAMED 1948-08-12 15:00:00 TS 18.1667 86.8667 main 207 207 P________PO___ IO091948 18.1500 86.8500 -1 18.1500 86.8500 TC 25 18.2000 86.9000 1 1 50
1948225N18087 1948 51 NI BB NOT_NAMED 1948-08-12 18:00:00 TS 18.2045 86.9167 main 207 207 O________OP___ jtwc_io IO091948 18.2000 86.9000 -1 18.2000 86.9000 TC 25 18.2134 86.9501 1 1 55
1948225N18087 1948 51 NI BB NOT_NAMED 1948-08-12 21:00:00 TS 18.2342 86.9667 main 210 200 P________PP___ IO091948 18.2350 86.9500 -1 18.2350 86.9500 TC 25 18.2325 87.0001 1 1 46
1948225N18087 1948 51 NI BB NOT_NAMED 1948-08-13 00:00:00 TS 18.2951 87.0167 main 200 189 O________OP___ jtwc_io IO091948 18.3000 87.0000 -1 18.3000 87.0000 TC 25 18.2853 87.0501 1 2 28
1948225N18087 1948 51 NI BB NOT_NAMED 1948-08-13 03:00:00 TS 18.4083 87.0667 main 193 172 P________PO___ IO091948 18.4125 87.0500 -1 18.4125 87.0500 TC 25 18.4000 87.1000 1 3 19
1948225N18087 1948 51 NI BB NOT_NAMED 1948-08-13 06:00:00 TS 18.6129 87.1234 main 172 148 O________OP___ jtwc_io IO091948 18.6000 87.1000 -1 18.6000 87.1000 TC 25 18.6388 87.1701 1 5 12
1948225N18087 1948 51 NI BB NOT_NAMED 1948-08-13 09:00:00 TS 18.9067 87.1790 main 148 122 P________PP___ IO091948 18.8925 87.1500 -1 18.8925 87.1500 TC 30 18.9350 87.2371 1 6 9
1948225N18087 1948 51 NI BB NOT_NAMED 1948-08-13 12:00:00 TS 19.2129 87.2286 main 122 114 O________OP___ jtwc_io IO091948 19.2000 87.2000 -1 19.2000 87.2000 TC 35 19.2388 87.2857 1 6 9
1948225N18087 1948 51 NI BB NOT_NAMED 1948-08-13 15:00:00 TS 19.4533 87.2766 main 109 100 P________PO___ IO091948 19.4300 87.2650 -1 19.4300 87.2650 TC 35 19.5000 87.3000 2 4 10
1948225N18087 1948 51 NI BB NOT_NAMED 1948-08-13 18:00:00 TS 19.6099 87.2978 main 100 91 O________OP___ jtwc_io IO091948 19.6000 87.3000 -1 19.6000 87.3000 TC 35 19.6298 87.2933 2 3 0
1948225N18087 1948 51 NI BB NOT_NAMED 1948-08-13 21:00:00 TS 19.7099 87.2740 main 91 76 P________PP___ IO091948 19.7075 87.2875 -1 19.7075 87.2875 TC 35 19.7147 87.2471 2 2 332
1948225N18087 1948 51 NI BB NOT_NAMED 1948-08-14 00:00:00 TS 19.7974 87.1841 main 76 54 O________OP___ jtwc_io IO091948 19.8000 87.2000 -1 19.8000 87.2000 TC 35 19.7923 87.1524 2 3 312
1948225N18087 1948 51 NI BB NOT_NAMED 1948-08-14 03:00:00 TS 19.9183 87.0249 main 54 24 P________PO___ IO091948 19.9275 87.0374 -1 19.9275 87.0374 TC 35 19.9000 87.0000 3 5 310
1948225N18087 1948 51 NI BB NOT_NAMED 1948-08-14 06:00:00 TS 20.0977 86.7983 main 24 0 O________OP___ jtwc_io IO091948 20.1000 86.8000 -1 20.1000 86.8000 TC 35 20.0932 86.7949 3 6 311
1948225N18087 1948 51 NI BB NOT_NAMED 1948-08-14 09:00:00 TS 20.3350 86.5210 main 0 0 P________PP___ IO091948 20.3425 86.5151 -1 20.3425 86.5151 TC 30 20.3200 86.5327 3 7 312
1948225N18087 1948 51 NI BB NOT_NAMED 1948-08-14 12:00:00 TS 20.5873 86.2097 main 0 0 O________OP___ jtwc_io IO091948 20.6000 86.2000 -1 20.6000 86.2000 TC 25 20.5618 86.2292 3 7 309
1948225N18087 1948 51 NI BB NOT_NAMED 1948-08-14 15:00:00 TS 20.8049 85.9049 main 0 0 P________PO___ IO091948 20.8074 85.9073 -1 20.8074 85.9073 TC 25 20.8000 85.9000 1 7 306
1948225N18087 1948 51 NI BB NOT_NAMED 1948-08-14 18:00:00 TS 21.0037 85.5945 main 0 0 O________OP___ jtwc_io IO091948 21.0000 85.6000 -1 21.0000 85.6000 TC 25 21.0110 85.5835 1 7 304
1948225N18087 1948 51 NI BB NOT_NAMED 1948-08-14 21:00:00 TS 21.2048 85.2581 main 0 0 P________PP___ IO091948 21.1999 85.2649 -1 21.1999 85.2649 TC 25 21.2147 85.2446 1 8 302
1948225N18087 1948 51 NI BB NOT_NAMED 1948-08-15 00:00:00 TS 21.4037 84.8945 main 0 0 O________OP___ jtwc_io IO091948 21.4000 84.9000 -1 21.4000 84.9000 TC 25 21.4110 84.8835 1 8 300
1948225N18087 1948 51 NI BB NOT_NAMED 1948-08-15 03:00:00 TS 21.6049 84.5100 main 0 0 P________PO___ IO091948 21.6074 84.5150 -1 21.6074 84.5150 TC 25 21.6000 84.5000 1 8 298
1948225N18087 1948 51 NI BB NOT_NAMED 1948-08-15 06:00:00 TS 21.7928 84.0920 main 0 0 O________OP___ jtwc_io IO091948 21.8000 84.1000 -1 21.8000 84.1000 TC 25 21.7784 84.0761 1 9 293
1948225N18087 1948 51 NI BB NOT_NAMED 1948-08-15 09:00:00 TS 21.9501 83.6448 main 0 0 P________PP___ IO091948 21.9500 83.6498 -1 21.9500 83.6498 TC 25 21.9504 83.6348 1 9 291
1948225N18087 1948 51 NI BB NOT_NAMED 1948-08-15 12:00:00 TS 22.1074 83.2004 main 0 0 O________OP___ jtwc_io IO091948 22.1000 83.2000 -1 22.1000 83.2000 TC 25 22.1222 83.2011 1 9 293
1948225N18087 1948 51 NI BB NOT_NAMED 1948-08-15 15:00:00 TS 22.2950 82.7800 main 0 0 P________PO___ IO091948 22.2925 82.7700 -1 22.2925 82.7700 TC 25 22.3000 82.8000 1 8 298
1948225N18087 1948 51 NI BB NOT_NAMED 1948-08-15 18:00:00 TS 22.4956 82.4200 main 0 0 O________OP___ jtwc_io IO091948 22.5000 82.4000 -1 22.5000 82.4000 TC 25 22.4889 82.4500 1 7 304
1948225N18087 1948 51 NI BB NOT_NAMED 1948-08-15 21:00:00 TS 22.6960 82.1313 main 0 0 P________PP___ IO091948 22.7025 82.1225 -1 22.7025 82.1225 TC 25 22.6873 82.1430 1 6 309
1948225N18087 1948 51 NI BB NOT_NAMED 1948-08-16 00:00:00 TS 22.8961 81.8823 main 0 0 O________OP___ jtwc_io IO091948 22.9000 81.9000 -1 22.9000 81.9000 TC 25 22.8922 81.8646 1 6 310
1948225N18087 1948 51 NI BB NOT_NAMED 1948-08-16 03:00:00 NR 23.1000 81.6000 main 0 __________O___ IO091948 -1 TC 23.1000 81.6000 1 7 308

IBTrACS Databaseについて

本データベースは、米国NOAAが公開する1842年以降の世界の熱帯低気圧のベストトラックデータアーカイブInternational Best Track Archive for Climate Stewardship (IBTrACS)を、ウェブで閲覧しやすい形式に変換したものです。

最終更新日:2021-10-25